sensor_id;sensor_type;location;lat;lon;timestamp;P1;durP1;ratioP1;P2;durP2;ratioP2
74788;SDS011;63313;48.258;12.518;2022-11-20T00:00:38;25.169999999999998;;;13.930000000000001;;
74788;SDS011;63313;48.258;12.518;2022-11-20T00:06:06;21.6;;;13.09;;
74788;SDS011;63313;48.258;12.518;2022-11-20T00:11:33;24.96;;;13.62;;
74788;SDS011;63313;48.258;12.518;2022-11-20T00:17:00;20.55;;;11.350000000000001;;
74788;SDS011;63313;48.258;12.518;2022-11-20T00:22:27;14.84;;;8.52;;
74788;SDS011;63313;48.258;12.518;2022-11-20T00:27:55;12.61;;;7.2;;
74788;SDS011;63313;48.258;12.518;2022-11-20T00:33:22;11.93;;;6.8;;
74788;SDS011;63313;48.258;12.518;2022-11-20T00:38:51;11.17;;;5.57;;
74788;SDS011;63313;48.258;12.518;2022-11-20T00:44:18;10.91;;;6.3;;
74788;SDS011;63313;48.258;12.518;2022-11-20T00:49:45;10.12;;;5.13;;
74788;SDS011;63313;48.258;12.518;2022-11-20T00:55:12;8.629999999999999;;;5.2700000000000005;;
74788;SDS011;63313;48.258;12.518;2022-11-20T01:00:39;9.219999999999999;;;5.03;;
74788;SDS011;63313;48.258;12.518;2022-11-20T01:06:07;7.95;;;4.94;;
74788;SDS011;63313;48.258;12.518;2022-11-20T01:11:36;5.3;;;3.63;;
74788;SDS011;63313;48.258;12.518;2022-11-20T01:17:03;5.36;;;4.37;;
74788;SDS011;63313;48.258;12.518;2022-11-20T01:22:30;9.549999999999999;;;4.88;;
74788;SDS011;63313;48.258;12.518;2022-11-20T01:27:57;6.76;;;4.42;;
74788;SDS011;63313;48.258;12.518;2022-11-20T01:33:24;7.390000000000001;;;4.84;;
74788;SDS011;63313;48.258;12.518;2022-11-20T01:38:52;8.239999999999998;;;4.58;;
74788;SDS011;63313;48.258;12.518;2022-11-20T01:44:20;7.830000000000001;;;4.2299999999999995;;
74788;SDS011;63313;48.258;12.518;2022-11-20T01:49:48;7.35;;;3.9800000000000004;;
74788;SDS011;63313;48.258;12.518;2022-11-20T01:55:19;9.64;;;4.55;;
74788;SDS011;63313;48.258;12.518;2022-11-20T02:00:46;9.9;;;4.22;;
74788;SDS011;63313;48.258;12.518;2022-11-20T02:06:15;8.629999999999999;;;4.79;;
74788;SDS011;63313;48.258;12.518;2022-11-20T02:11:43;8.33;;;4.9;;
74788;SDS011;63313;48.258;12.518;2022-11-20T02:17:10;7.3;;;4.630000000000001;;
74788;SDS011;63313;48.258;12.518;2022-11-20T02:22:38;9.41;;;4.49;;
74788;SDS011;63313;48.258;12.518;2022-11-20T02:28:06;8.21;;;4.450000000000001;;
74788;SDS011;63313;48.258;12.518;2022-11-20T02:33:33;7.05;;;4.720000000000001;;
74788;SDS011;63313;48.258;12.518;2022-11-20T02:39:01;6.08;;;4.5;;
74788;SDS011;63313;48.258;12.518;2022-11-20T02:44:28;9.48;;;4.42;;
74788;SDS011;63313;48.258;12.518;2022-11-20T02:49:55;8.05;;;4.76;;
74788;SDS011;63313;48.258;12.518;2022-11-20T02:55:22;6.000000000000001;;;4.14;;
74788;SDS011;63313;48.258;12.518;2022-11-20T03:00:49;8.059999999999999;;;3.7399999999999993;;
74788;SDS011;63313;48.258;12.518;2022-11-20T03:06:16;6.42;;;4.01;;
74788;SDS011;63313;48.258;12.518;2022-11-20T03:11:43;7.65;;;4.03;;
74788;SDS011;63313;48.258;12.518;2022-11-20T03:17:10;6.659999999999999;;;4.29;;
74788;SDS011;63313;48.258;12.518;2022-11-20T03:22:37;4.640000000000001;;;3.56;;
74788;SDS011;63313;48.258;12.518;2022-11-20T03:28:04;5.180000000000001;;;3.900000000000001;;
74788;SDS011;63313;48.258;12.518;2022-11-20T03:33:32;9.610000000000001;;;4.25;;
74788;SDS011;63313;48.258;12.518;2022-11-20T03:38:59;6.7700000000000005;;;4.32;;
74788;SDS011;63313;48.258;12.518;2022-11-20T03:44:26;7.3100000000000005;;;4.049999999999999;;
74788;SDS011;63313;48.258;12.518;2022-11-20T03:49:53;6.35;;;4.05;;
74788;SDS011;63313;48.258;12.518;2022-11-20T03:55:20;7.88;;;4.04;;
74788;SDS011;63313;48.258;12.518;2022-11-20T04:00:47;5.98;;;3.789999999999999;;
74788;SDS011;63313;48.258;12.518;2022-11-20T04:06:15;4.910000000000001;;;3.6199999999999997;;
74788;SDS011;63313;48.258;12.518;2022-11-20T04:11:42;5.95;;;3.9299999999999997;;
74788;SDS011;63313;48.258;12.518;2022-11-20T04:17:09;6.95;;;4.09;;
74788;SDS011;63313;48.258;12.518;2022-11-20T04:22:36;5.49;;;3.78;;
74788;SDS011;63313;48.258;12.518;2022-11-20T04:28:03;7.789999999999999;;;4.140000000000001;;
74788;SDS011;63313;48.258;12.518;2022-11-20T04:33:30;5.66;;;4.26;;
74788;SDS011;63313;48.258;12.518;2022-11-20T04:38:58;9.790000000000003;;;4.48;;
74788;SDS011;63313;48.258;12.518;2022-11-20T04:44:25;6.49;;;4.14;;
74788;SDS011;63313;48.258;12.518;2022-11-20T04:49:52;7.82;;;3.7600000000000002;;
74788;SDS011;63313;48.258;12.518;2022-11-20T04:55:19;6.830000000000001;;;4.1;;
74788;SDS011;63313;48.258;12.518;2022-11-20T05:00:46;4.9399999999999995;;;3.96;;
74788;SDS011;63313;48.258;12.518;2022-11-20T05:06:15;7.65;;;4.43;;
74788;SDS011;63313;48.258;12.518;2022-11-20T05:11:42;6.519999999999999;;;3.88;;
74788;SDS011;63313;48.258;12.518;2022-11-20T05:17:10;6.5600000000000005;;;3.8899999999999997;;
74788;SDS011;63313;48.258;12.518;2022-11-20T05:22:37;5.109999999999999;;;4.01;;
74788;SDS011;63313;48.258;12.518;2022-11-20T05:28:04;3.97;;;3.4200000000000004;;
74788;SDS011;63313;48.258;12.518;2022-11-20T05:33:32;6.5;;;3.7600000000000002;;
74788;SDS011;63313;48.258;12.518;2022-11-20T05:38:59;4.74;;;3.7399999999999998;;
74788;SDS011;63313;48.258;12.518;2022-11-20T05:44:26;6.5200000000000005;;;3.7600000000000002;;
74788;SDS011;63313;48.258;12.518;2022-11-20T05:49:53;4.2;;;3.25;;
74788;SDS011;63313;48.258;12.518;2022-11-20T05:55:20;4.45;;;3.7099999999999995;;
74788;SDS011;63313;48.258;12.518;2022-11-20T06:00:47;5.3100000000000005;;;3.5800000000000005;;
74788;SDS011;63313;48.258;12.518;2022-11-20T06:06:14;4.34;;;3.749999999999999;;
74788;SDS011;63313;48.258;12.518;2022-11-20T06:11:42;8.53;;;3.5199999999999996;;
74788;SDS011;63313;48.258;12.518;2022-11-20T06:17:09;5.87;;;3.59;;
74788;SDS011;63313;48.258;12.518;2022-11-20T06:22:36;4.46;;;3.3299999999999996;;
74788;SDS011;63313;48.258;12.518;2022-11-20T06:28:03;5.05;;;3.5;;
74788;SDS011;63313;48.258;12.518;2022-11-20T06:33:30;5.85;;;3.7400000000000007;;
74788;SDS011;63313;48.258;12.518;2022-11-20T06:38:57;4.709999999999999;;;3.7099999999999995;;
74788;SDS011;63313;48.258;12.518;2022-11-20T06:44:24;7.460000000000001;;;3.7600000000000002;;
74788;SDS011;63313;48.258;12.518;2022-11-20T06:49:52;6.14;;;3.6499999999999995;;
74788;SDS011;63313;48.258;12.518;2022-11-20T06:55:19;7.82;;;3.6799999999999997;;
74788;SDS011;63313;48.258;12.518;2022-11-20T07:00:46;5.29;;;3.7;;
74788;SDS011;63313;48.258;12.518;2022-11-20T07:06:13;5.47;;;4.01;;
74788;SDS011;63313;48.258;12.518;2022-11-20T07:11:40;4.86;;;3.3299999999999996;;
74788;SDS011;63313;48.258;12.518;2022-11-20T07:17:07;3.87;;;3.0599999999999996;;
74788;SDS011;63313;48.258;12.518;2022-11-20T07:22:34;6.18;;;3.54;;
74788;SDS011;63313;48.258;12.518;2022-11-20T07:28:01;7.360000000000001;;;3.13;;
74788;SDS011;63313;48.258;12.518;2022-11-20T07:33:28;6.09;;;3.47;;
74788;SDS011;63313;48.258;12.518;2022-11-20T07:38:55;5.02;;;3.8099999999999996;;
74788;SDS011;63313;48.258;12.518;2022-11-20T07:44:22;7.87;;;3.41;;
74788;SDS011;63313;48.258;12.518;2022-11-20T07:49:49;6.710000000000001;;;3.8699999999999997;;
74788;SDS011;63313;48.258;12.518;2022-11-20T07:55:17;3.9;;;3.31;;
74788;SDS011;63313;48.258;12.518;2022-11-20T08:00:44;4.859999999999999;;;3.5200000000000005;;
74788;SDS011;63313;48.258;12.518;2022-11-20T08:06:11;5.17;;;3.7600000000000002;;
74788;SDS011;63313;48.258;12.518;2022-11-20T08:11:38;3.7600000000000002;;;3.09;;
74788;SDS011;63313;48.258;12.518;2022-11-20T08:17:05;5.0200000000000005;;;3.2;;
74788;SDS011;63313;48.258;12.518;2022-11-20T08:22:32;6.6;;;4.24;;
74788;SDS011;63313;48.258;12.518;2022-11-20T08:27:59;4.99;;;3.59;;
74788;SDS011;63313;48.258;12.518;2022-11-20T08:33:27;4.67;;;3.44;;
74788;SDS011;63313;48.258;12.518;2022-11-20T08:38:54;6.08;;;3.66;;
74788;SDS011;63313;48.258;12.518;2022-11-20T08:44:22;8.12;;;3.2600000000000002;;
74788;SDS011;63313;48.258;12.518;2022-11-20T08:49:49;6.160000000000001;;;3.3199999999999994;;
74788;SDS011;63313;48.258;12.518;2022-11-20T08:55:16;3.4200000000000004;;;3.0;;
74788;SDS011;63313;48.258;12.518;2022-11-20T09:00:43;3.8899999999999997;;;2.79;;
74788;SDS011;63313;48.258;12.518;2022-11-20T09:06:10;3.4400000000000004;;;2.6100000000000003;;
74788;SDS011;63313;48.258;12.518;2022-11-20T09:11:37;2.7600000000000002;;;2.4699999999999998;;
74788;SDS011;63313;48.258;12.518;2022-11-20T09:17:04;3.7399999999999998;;;2.3299999999999996;;
74788;SDS011;63313;48.258;12.518;2022-11-20T09:22:31;2.05;;;1.8700000000000003;;
74788;SDS011;63313;48.258;12.518;2022-11-20T09:27:59;4.82;;;2.0100000000000002;;
74788;SDS011;63313;48.258;12.518;2022-11-20T09:33:26;1.92;;;1.83;;
74788;SDS011;63313;48.258;12.518;2022-11-20T09:38:53;2.16;;;1.6700000000000004;;
74788;SDS011;63313;48.258;12.518;2022-11-20T09:44:25;3.0;;;1.6300000000000001;;
74788;SDS011;63313;48.258;12.518;2022-11-20T09:49:58;1.89;;;1.7299999999999998;;
74788;SDS011;63313;48.258;12.518;2022-11-20T09:55:26;1.6199999999999999;;;1.37;;
74788;SDS011;63313;48.258;12.518;2022-11-20T10:00:55;5.2299999999999995;;;1.43;;
74788;SDS011;63313;48.258;12.518;2022-11-20T10:06:24;3.8600000000000003;;;1.5599999999999998;;
74788;SDS011;63313;48.258;12.518;2022-11-20T10:11:58;1.8700000000000003;;;1.7;;
74788;SDS011;63313;48.258;12.518;2022-11-20T10:17:31;2.55;;;1.47;;
74788;SDS011;63313;48.258;12.518;2022-11-20T10:23:06;2.42;;;1.45;;
74788;SDS011;63313;48.258;12.518;2022-11-20T10:28:42;2.61;;;1.4700000000000002;;
74788;SDS011;63313;48.258;12.518;2022-11-20T10:34:16;2.9099999999999997;;;1.2900000000000003;;
74788;SDS011;63313;48.258;12.518;2022-11-20T10:39:47;1.3000000000000003;;;1.2700000000000002;;
74788;SDS011;63313;48.258;12.518;2022-11-20T10:45:19;2.82;;;1.4600000000000002;;
74788;SDS011;63313;48.258;12.518;2022-11-20T10:50:52;1.23;;;1.1799999999999997;;
74788;SDS011;63313;48.258;12.518;2022-11-20T10:56:22;2.55;;;1.5699999999999998;;
74788;SDS011;63313;48.258;12.518;2022-11-20T11:01:51;1.7799999999999998;;;1.23;;
74788;SDS011;63313;48.258;12.518;2022-11-20T11:07:20;1.28;;;1.2000000000000002;;
74788;SDS011;63313;48.258;12.518;2022-11-20T11:12:48;1.7;;;1.3699999999999999;;
74788;SDS011;63313;48.258;12.518;2022-11-20T11:18:22;1.44;;;1.34;;
74788;SDS011;63313;48.258;12.518;2022-11-20T11:23:57;2.62;;;1.2199999999999998;;
74788;SDS011;63313;48.258;12.518;2022-11-20T11:29:25;2.1999999999999997;;;1.4600000000000002;;
74788;SDS011;63313;48.258;12.518;2022-11-20T11:34:59;2.21;;;1.36;;
74788;SDS011;63313;48.258;12.518;2022-11-20T11:40:26;2.2199999999999998;;;1.05;;
74788;SDS011;63313;48.258;12.518;2022-11-20T11:45:55;2.99;;;1.46;;
74788;SDS011;63313;48.258;12.518;2022-11-20T11:51:23;1.0;;;0.9799999999999999;;
74788;SDS011;63313;48.258;12.518;2022-11-20T11:56:51;3.08;;;1.2499999999999998;;
74788;SDS011;63313;48.258;12.518;2022-11-20T12:02:24;2.98;;;1.01;;
74788;SDS011;63313;48.258;12.518;2022-11-20T12:07:52;2.07;;;1.2599999999999998;;
74788;SDS011;63313;48.258;12.518;2022-11-20T12:13:25;1.17;;;0.96;;
74788;SDS011;63313;48.258;12.518;2022-11-20T12:18:53;0.9700000000000001;;;0.8800000000000001;;
74788;SDS011;63313;48.258;12.518;2022-11-20T12:24:25;1.23;;;0.8600000000000001;;
74788;SDS011;63313;48.258;12.518;2022-11-20T12:29:57;2.8499999999999996;;;0.9799999999999999;;
74788;SDS011;63313;48.258;12.518;2022-11-20T12:35:30;1.41;;;1.15;;
74788;SDS011;63313;48.258;12.518;2022-11-20T12:41:04;1.5299999999999998;;;1.4;;
74788;SDS011;63313;48.258;12.518;2022-11-20T12:46:35;2.34;;;1.3400000000000003;;
74788;SDS011;63313;48.258;12.518;2022-11-20T12:52:09;3.8;;;1.2600000000000002;;
74788;SDS011;63313;48.258;12.518;2022-11-20T12:57:39;2.2;;;0.97;;
74788;SDS011;63313;48.258;12.518;2022-11-20T13:03:16;1.97;;;1.46;;
74788;SDS011;63313;48.258;12.518;2022-11-20T13:08:52;1.6200000000000003;;;0.97;;
74788;SDS011;63313;48.258;12.518;2022-11-20T13:14:24;2.05;;;1.31;;
74788;SDS011;63313;48.258;12.518;2022-11-20T13:19:53;1.3700000000000003;;;1.2499999999999998;;
74788;SDS011;63313;48.258;12.518;2022-11-20T13:25:23;1.7600000000000002;;;1.3400000000000003;;
74788;SDS011;63313;48.258;12.518;2022-11-20T13:30:50;1.2200000000000002;;;1.15;;
74788;SDS011;63313;48.258;12.518;2022-11-20T13:36:20;1.1199999999999999;;;0.8300000000000001;;
74788;SDS011;63313;48.258;12.518;2022-11-20T13:41:53;2.4;;;1.36;;
74788;SDS011;63313;48.258;12.518;2022-11-20T13:47:21;2.69;;;1.0;;
74788;SDS011;63313;48.258;12.518;2022-11-20T13:52:49;0.8700000000000001;;;0.8400000000000001;;
74788;SDS011;63313;48.258;12.518;2022-11-20T13:58:23;2.02;;;1.8199999999999998;;
74788;SDS011;63313;48.258;12.518;2022-11-20T14:03:51;1.0999999999999999;;;1.0999999999999999;;
74788;SDS011;63313;48.258;12.518;2022-11-20T14:09:27;0.9099999999999999;;;0.9099999999999999;;
74788;SDS011;63313;48.258;12.518;2022-11-20T14:14:55;1.0;;;0.97;;
74788;SDS011;63313;48.258;12.518;2022-11-20T14:20:23;1.2100000000000002;;;0.99;;
74788;SDS011;63313;48.258;12.518;2022-11-20T14:25:51;1.7399999999999998;;;1.19;;
74788;SDS011;63313;48.258;12.518;2022-11-20T14:31:21;1.2500000000000002;;;1.22;;
74788;SDS011;63313;48.258;12.518;2022-11-20T14:36:49;1.4200000000000002;;;1.2900000000000003;;
74788;SDS011;63313;48.258;12.518;2022-11-20T14:42:19;1.6;;;1.5;;
74788;SDS011;63313;48.258;12.518;2022-11-20T14:47:47;1.8099999999999998;;;1.6199999999999999;;
74788;SDS011;63313;48.258;12.518;2022-11-20T14:53:21;1.1900000000000002;;;1.1099999999999999;;
74788;SDS011;63313;48.258;12.518;2022-11-20T14:58:55;1.97;;;1.43;;
74788;SDS011;63313;48.258;12.518;2022-11-20T15:04:22;2.4899999999999998;;;1.8400000000000003;;
74788;SDS011;63313;48.258;12.518;2022-11-20T15:09:58;3.7;;;1.42;;
74788;SDS011;63313;48.258;12.518;2022-11-20T15:15:28;1.59;;;1.4300000000000002;;
74788;SDS011;63313;48.258;12.518;2022-11-20T15:20:57;1.6099999999999999;;;1.22;;
74788;SDS011;63313;48.258;12.518;2022-11-20T15:26:25;1.61;;;1.33;;
74788;SDS011;63313;48.258;12.518;2022-11-20T15:31:53;1.69;;;1.58;;
74788;SDS011;63313;48.258;12.518;2022-11-20T15:37:20;2.12;;;1.5599999999999998;;
74788;SDS011;63313;48.258;12.518;2022-11-20T15:42:47;1.9600000000000002;;;1.8199999999999996;;
74788;SDS011;63313;48.258;12.518;2022-11-20T15:48:15;2.1500000000000004;;;1.9900000000000002;;
74788;SDS011;63313;48.258;12.518;2022-11-20T15:53:43;2.2600000000000002;;;2.0700000000000003;;
74788;SDS011;63313;48.258;12.518;2022-11-20T15:59:10;4.04;;;2.7800000000000002;;
74788;SDS011;63313;48.258;12.518;2022-11-20T16:04:37;2.56;;;2.25;;
74788;SDS011;63313;48.258;12.518;2022-11-20T16:10:04;3.69;;;2.9;;
74788;SDS011;63313;48.258;12.518;2022-11-20T16:15:31;3.9800000000000004;;;2.1399999999999997;;
74788;SDS011;63313;48.258;12.518;2022-11-20T16:20:58;6.2700000000000005;;;2.8099999999999996;;
74788;SDS011;63313;48.258;12.518;2022-11-20T16:26:25;2.44;;;2.15;;
74788;SDS011;63313;48.258;12.518;2022-11-20T16:31:53;2.7499999999999996;;;1.8399999999999999;;
74788;SDS011;63313;48.258;12.518;2022-11-20T16:37:20;3.65;;;1.9899999999999998;;
74788;SDS011;63313;48.258;12.518;2022-11-20T16:42:47;3.3800000000000003;;;2.2;;
74788;SDS011;63313;48.258;12.518;2022-11-20T16:48:15;1.78;;;1.65;;
74788;SDS011;63313;48.258;12.518;2022-11-20T16:53:42;1.69;;;1.5699999999999998;;
74788;SDS011;63313;48.258;12.518;2022-11-20T16:59:09;1.77;;;1.6800000000000002;;
74788;SDS011;63313;48.258;12.518;2022-11-20T17:04:36;3.6399999999999997;;;1.44;;
74788;SDS011;63313;48.258;12.518;2022-11-20T17:10:03;2.67;;;2.3;;
74788;SDS011;63313;48.258;12.518;2022-11-20T17:15:31;3.6700000000000004;;;2.0900000000000003;;
74788;SDS011;63313;48.258;12.518;2022-11-20T17:20:58;1.6;;;1.4200000000000002;;
74788;SDS011;63313;48.258;12.518;2022-11-20T17:26:25;1.8099999999999998;;;1.23;;
74788;SDS011;63313;48.258;12.518;2022-11-20T17:31:52;1.6300000000000001;;;1.44;;
74788;SDS011;63313;48.258;12.518;2022-11-20T17:37:19;1.53;;;1.45;;
74788;SDS011;63313;48.258;12.518;2022-11-20T17:42:46;1.86;;;1.4200000000000002;;
74788;SDS011;63313;48.258;12.518;2022-11-20T17:48:13;1.35;;;1.3199999999999998;;
74788;SDS011;63313;48.258;12.518;2022-11-20T17:53:41;1.58;;;1.2700000000000002;;
74788;SDS011;63313;48.258;12.518;2022-11-20T17:59:09;1.6800000000000002;;;1.53;;
74788;SDS011;63313;48.258;12.518;2022-11-20T18:04:36;4.41;;;2.54;;
74788;SDS011;63313;48.258;12.518;2022-11-20T18:10:04;6.23;;;2.93;;
74788;SDS011;63313;48.258;12.518;2022-11-20T18:15:31;3.1199999999999997;;;1.9999999999999996;;
74788;SDS011;63313;48.258;12.518;2022-11-20T18:20:58;2.41;;;1.9600000000000002;;
74788;SDS011;63313;48.258;12.518;2022-11-20T18:26:25;2.7499999999999996;;;1.6800000000000002;;
74788;SDS011;63313;48.258;12.518;2022-11-20T18:31:53;4.88;;;1.95;;
74788;SDS011;63313;48.258;12.518;2022-11-20T18:37:20;3.12;;;2.04;;
74788;SDS011;63313;48.258;12.518;2022-11-20T18:42:47;2.15;;;1.7;;
74788;SDS011;63313;48.258;12.518;2022-11-20T18:48:14;2.54;;;2.0900000000000003;;
74788;SDS011;63313;48.258;12.518;2022-11-20T18:53:41;6.12;;;2.4099999999999993;;
74788;SDS011;63313;48.258;12.518;2022-11-20T18:59:09;3.6400000000000006;;;2.49;;
74788;SDS011;63313;48.258;12.518;2022-11-20T19:04:36;3.9300000000000006;;;2.66;;
74788;SDS011;63313;48.258;12.518;2022-11-20T19:10:04;4.430000000000001;;;2.5500000000000003;;
74788;SDS011;63313;48.258;12.518;2022-11-20T19:15:31;5.72;;;4.160000000000001;;
74788;SDS011;63313;48.258;12.518;2022-11-20T19:21:05;5.619999999999999;;;3.46;;
74788;SDS011;63313;48.258;12.518;2022-11-20T19:26:33;3.14;;;2.54;;
74788;SDS011;63313;48.258;12.518;2022-11-20T19:32:00;3.29;;;2.96;;
74788;SDS011;63313;48.258;12.518;2022-11-20T19:37:27;6.250000000000001;;;4.24;;
74788;SDS011;63313;48.258;12.518;2022-11-20T19:42:54;8.46;;;5.360000000000001;;
74788;SDS011;63313;48.258;12.518;2022-11-20T19:48:21;14.560000000000002;;;9.55;;
74788;SDS011;63313;48.258;12.518;2022-11-20T19:53:49;8.650000000000002;;;5.29;;
74788;SDS011;63313;48.258;12.518;2022-11-20T19:59:16;8.27;;;5.279999999999999;;
74788;SDS011;63313;48.258;12.518;2022-11-20T20:04:43;7.199999999999998;;;4.279999999999999;;
74788;SDS011;63313;48.258;12.518;2022-11-20T20:10:10;8.69;;;4.2299999999999995;;
74788;SDS011;63313;48.258;12.518;2022-11-20T20:15:38;4.970000000000001;;;3.63;;
74788;SDS011;63313;48.258;12.518;2022-11-20T20:21:06;8.34;;;3.9599999999999995;;
74788;SDS011;63313;48.258;12.518;2022-11-20T20:26:33;9.069999999999999;;;4.179999999999999;;
74788;SDS011;63313;48.258;12.518;2022-11-20T20:32:00;7.529999999999999;;;4.28;;
74788;SDS011;63313;48.258;12.518;2022-11-20T20:37:27;7.840000000000001;;;4.279999999999999;;
74788;SDS011;63313;48.258;12.518;2022-11-20T20:42:55;7.05;;;4.159999999999999;;
74788;SDS011;63313;48.258;12.518;2022-11-20T20:48:22;6.75;;;4.869999999999999;;
74788;SDS011;63313;48.258;12.518;2022-11-20T20:53:49;6.119999999999999;;;4.4;;
74788;SDS011;63313;48.258;12.518;2022-11-20T20:59:17;7.05;;;4.339999999999999;;
74788;SDS011;63313;48.258;12.518;2022-11-20T21:04:44;5.819999999999999;;;4.31;;
74788;SDS011;63313;48.258;12.518;2022-11-20T21:10:11;6.49;;;4.46;;
74788;SDS011;63313;48.258;12.518;2022-11-20T21:15:38;9.46;;;5.65;;
74788;SDS011;63313;48.258;12.518;2022-11-20T21:21:05;9.07;;;5.45;;
74788;SDS011;63313;48.258;12.518;2022-11-20T21:26:33;6.22;;;4.57;;
74788;SDS011;63313;48.258;12.518;2022-11-20T21:32:00;6.969999999999999;;;5.19;;
74788;SDS011;63313;48.258;12.518;2022-11-20T21:37:27;10.649999999999999;;;5.4399999999999995;;
74788;SDS011;63313;48.258;12.518;2022-11-20T21:42:54;9.129999999999999;;;5.7299999999999995;;
74788;SDS011;63313;48.258;12.518;2022-11-20T21:48:21;18.439999999999998;;;8.879999999999999;;
74788;SDS011;63313;48.258;12.518;2022-11-20T21:53:48;22.389999999999997;;;10.180000000000001;;
74788;SDS011;63313;48.258;12.518;2022-11-20T21:59:16;30.209999999999997;;;15.1;;
74788;SDS011;63313;48.258;12.518;2022-11-20T22:04:43;32.440000000000005;;;13.66;;
74788;SDS011;63313;48.258;12.518;2022-11-20T22:10:10;23.06;;;11.379999999999999;;
74788;SDS011;63313;48.258;12.518;2022-11-20T22:15:37;17.970000000000006;;;9.770000000000001;;
74788;SDS011;63313;48.258;12.518;2022-11-20T22:21:04;20.889999999999997;;;9.919999999999998;;
74788;SDS011;63313;48.258;12.518;2022-11-20T22:26:33;25.830000000000002;;;11.059999999999999;;
74788;SDS011;63313;48.258;12.518;2022-11-20T22:32:00;19.259999999999998;;;9.76;;
74788;SDS011;63313;48.258;12.518;2022-11-20T22:37:28;17.390000000000004;;;9.73;;
74788;SDS011;63313;48.258;12.518;2022-11-20T22:42:55;13.0;;;7.88;;
74788;SDS011;63313;48.258;12.518;2022-11-20T22:48:22;9.76;;;4.87;;
74788;SDS011;63313;48.258;12.518;2022-11-20T22:53:49;4.74;;;3.1800000000000006;;
74788;SDS011;63313;48.258;12.518;2022-11-20T22:59:16;4.51;;;2.9299999999999997;;
74788;SDS011;63313;48.258;12.518;2022-11-20T23:04:43;6.74;;;2.8600000000000003;;
74788;SDS011;63313;48.258;12.518;2022-11-20T23:10:10;3.6;;;1.9700000000000002;;
74788;SDS011;63313;48.258;12.518;2022-11-20T23:15:37;5.05;;;2.15;;
74788;SDS011;63313;48.258;12.518;2022-11-20T23:21:05;2.9300000000000006;;;2.0;;
74788;SDS011;63313;48.258;12.518;2022-11-20T23:26:33;3.13;;;2.1;;
74788;SDS011;63313;48.258;12.518;2022-11-20T23:32:00;4.25;;;2.44;;
74788;SDS011;63313;48.258;12.518;2022-11-20T23:37:27;2.7800000000000002;;;2.3899999999999997;;
74788;SDS011;63313;48.258;12.518;2022-11-20T23:42:54;2.9199999999999995;;;2.5800000000000005;;
74788;SDS011;63313;48.258;12.518;2022-11-20T23:48:22;3.7;;;2.35;;
74788;SDS011;63313;48.258;12.518;2022-11-20T23:53:49;4.18;;;2.0599999999999996;;
74788;SDS011;63313;48.258;12.518;2022-11-20T23:59:16;2.4299999999999997;;;1.9600000000000002;;
